Time;durP1;ratioP1;P1;durP2;ratioP2;P2;SDS_P1;SDS_P2;PMS_P1;PMS_P2;Temp;Humidity;BMP_temperature;BMP_pressure;BME280_temperature;BME280_humidity;BME280_pressure;Samples;Min_cycle;Max_cycle;Signal;HPM_P1;HPM_P2
2022/01/12 00:00:19;;;;;;;31.33;23.85;;;;;;;;;;6126782;23;20017;-69
2022/01/12 00:02:44;;;;;;;24.35;17.60;;;;;;;;;;6126446;23;20414;-62
2022/01/12 00:05:11;;;;;;;25.25;16.70;;;;;;;;;;6126477;23;20053;-61
2022/01/12 00:07:36;;;;;;;24.88;15.65;;;;;;;;;;6126562;23;20369;-61
2022/01/12 00:10:02;;;;;;;21.27;14.38;;;;;;;;;;6126384;23;20029;-61
2022/01/12 00:12:28;;;;;;;23.38;15.48;;;;;;;;;;6126124;23;20012;-61
2022/01/12 00:14:53;;;;;;;20.27;13.68;;;;;;;;;;6126431;23;20013;-61
2022/01/12 00:17:19;;;;;;;21.20;14.20;;;;;;;;;;6126243;23;20028;-68
2022/01/12 00:19:44;;;;;;;25.08;15.23;;;;;;;;;;6126444;23;20136;-68
2022/01/12 00:22:09;;;;;;;20.05;14.30;;;;;;;;;;6126311;23;20402;-69
2022/01/12 00:25:04;;;;;;;25.35;16.50;;;;;;;;;;6127149;23;20108;-70
2022/01/12 00:33:09;;;;;;;19.77;13.20;;;;;;;;;;6102750;23;20016;-62
2022/01/12 00:35:35;;;;;;;22.38;13.85;;;;;;;;;;6102882;23;20045;-61
2022/01/12 00:38:00;;;;;;;19.20;12.45;;;;;;;;;;6128428;23;19998;-61
2022/01/12 00:40:26;;;;;;;16.77;11.50;;;;;;;;;;6128206;23;20010;-62
2022/01/12 00:42:52;;;;;;;15.40;11.00;;;;;;;;;;6127813;23;20025;-62
2022/01/12 00:45:18;;;;;;;17.38;11.50;;;;;;;;;;6102077;23;20006;-63
2022/01/12 00:47:43;;;;;;;17.25;11.52;;;;;;;;;;6102330;23;19998;-69
2022/01/12 00:50:09;;;;;;;16.02;10.95;;;;;;;;;;6102112;23;20010;-69
2022/01/12 00:52:35;;;;;;;18.30;12.07;;;;;;;;;;6101454;23;20324;-68
2022/01/12 00:55:02;;;;;;;21.65;13.18;;;;;;;;;;6126328;23;20098;-68
2022/01/12 00:57:27;;;;;;;20.45;13.48;;;;;;;;;;6101809;23;20092;-69
2022/01/12 00:59:53;;;;;;;14.18;10.88;;;;;;;;;;6128014;23;20029;-68
2022/01/12 01:02:18;;;;;;;24.02;14.18;;;;;;;;;;6102010;23;20390;-68
2022/01/12 01:04:44;;;;;;;21.95;13.75;;;;;;;;;;6127893;23;20002;-68
2022/01/12 01:07:09;;;;;;;19.52;13.68;;;;;;;;;;6102246;23;20403;-68
2022/01/12 01:09:39;;;;;;;23.10;14.68;;;;;;;;;;6101927;23;20010;-70
2022/01/12 01:12:05;;;;;;;21.70;14.52;;;;;;;;;;6102262;23;20080;-68
2022/01/12 01:15:03;;;;;;;24.20;15.48;;;;;;;;;;6101902;23;20006;-62
2022/01/12 01:25:40;;;;;;;21.30;14.82;;;;;;;;;;6127827;23;20029;-62
2022/01/12 01:28:06;;;;;;;22.73;14.85;;;;;;;;;;6102150;23;20399;-62
2022/01/12 01:30:32;;;;;;;25.55;16.40;;;;;;;;;;6126246;23;20308;-68
2022/01/12 01:33:05;;;;;;;24.42;16.38;;;;;;;;;;6101668;23;20280;-69
2022/01/12 01:35:31;;;;;;;23.15;14.60;;;;;;;;;;6101226;23;20013;-69
2022/01/12 01:38:01;;;;;;;26.50;15.65;;;;;;;;;;6101449;23;20029;-70
2022/01/12 01:40:29;;;;;;;24.35;15.80;;;;;;;;;;6101718;23;20093;-70
2022/01/12 01:53:38;;;;;;;31.55;18.17;;;;;;;;;;6126642;23;20016;-67
2022/01/12 01:56:05;;;;;;;72.82;36.95;;;;;;;;;;6101581;23;20088;-67
2022/01/12 01:58:31;;;;;;;199.18;97.32;;;;;;;;;;6101468;23;20029;-69
2022/01/12 02:00:57;;;;;;;147.93;73.03;;;;;;;;;;6101332;23;20033;-68
2022/01/12 02:03:29;;;;;;;115.57;60.05;;;;;;;;;;6101552;23;20438;-68
2022/01/12 02:06:00;;;;;;;35.33;20.45;;;;;;;;;;6101575;23;20033;-68
2022/01/12 02:08:27;;;;;;;149.52;86.20;;;;;;;;;;6077415;23;20006;-68
2022/01/12 02:11:23;;;;;;;265.60;143.07;;;;;;;;;;6087958;23;20422;-62
2022/01/12 02:13:49;;;;;;;42.83;25.13;;;;;;;;;;6101232;23;20080;-62
2022/01/12 02:16:17;;;;;;;29.08;20.05;;;;;;;;;;6101276;23;20026;-62
2022/01/12 02:19:08;;;;;;;130.70;76.72;;;;;;;;;;6127204;23;20336;-62
2022/01/12 02:40:31;;;;;;;25.98;17.27;;;;;;;;;;6126896;23;20013;-61
2022/01/12 02:43:17;;;;;;;20.20;13.00;;;;;;;;;;6100800;23;20319;-61
2022/01/12 02:51:35;;;;;;;38.25;24.98;;;;;;;;;;5981268;24;20031;-69
2022/01/12 02:54:03;;;;;;;20.00;13.80;;;;;;;;;;6102182;23;20072;-69
2022/01/12 02:56:30;;;;;;;64.85;40.60;;;;;;;;;;6100809;23;20033;-69
2022/01/12 02:58:58;;;;;;;31.27;20.98;;;;;;;;;;6100729;23;20445;-69
2022/01/12 03:03:58;;;;;;;19.70;12.60;;;;;;;;;;6125200;23;20010;-69
2022/01/12 03:06:27;;;;;;;21.13;12.38;;;;;;;;;;6100844;23;20029;-68
2022/01/12 03:08:53;;;;;;;23.67;14.70;;;;;;;;;;6127266;23;20009;-68
2022/01/12 03:11:19;;;;;;;53.92;35.33;;;;;;;;;;6100842;23;20002;-69
2022/01/12 03:13:48;;;;;;;33.38;22.60;;;;;;;;;;6077095;23;20041;-68
2022/01/12 03:16:17;;;;;;;17.75;12.05;;;;;;;;;;6101178;23;20431;-69
2022/01/12 03:18:47;;;;;;;20.80;12.40;;;;;;;;;;6100642;23;20084;-70
2022/01/12 03:21:13;;;;;;;32.28;21.52;;;;;;;;;;6100820;23;20134;-69
2022/01/12 03:23:39;;;;;;;20.30;13.27;;;;;;;;;;6101065;23;20422;-70
2022/01/12 03:26:06;;;;;;;16.42;10.88;;;;;;;;;;6101100;23;19994;-68
2022/01/12 03:28:32;;;;;;;18.73;12.50;;;;;;;;;;6125219;23;20005;-69
2022/01/12 04:09:49;;;;;;;14.50;10.40;;;;;;;;;;6019661;23;20038;-62
2022/01/12 04:12:15;;;;;;;15.93;10.75;;;;;;;;;;6073505;23;20081;-63
2022/01/12 04:14:41;;;;;;;19.73;12.23;;;;;;;;;;6073532;23;20016;-62
2022/01/12 04:17:06;;;;;;;22.52;15.07;;;;;;;;;;6073592;23;20085;-62
2022/01/12 04:19:33;;;;;;;22.73;16.33;;;;;;;;;;6073722;23;20037;-62
2022/01/12 04:22:07;;;;;;;27.42;20.70;;;;;;;;;;6073486;23;19995;-63
2022/01/12 04:24:35;;;;;;;17.27;11.90;;;;;;;;;;6073553;23;20093;-63
2022/01/12 04:27:00;;;;;;;15.48;11.20;;;;;;;;;;6073358;23;20007;-62
2022/01/12 04:29:27;;;;;;;18.00;11.10;;;;;;;;;;6073498;23;20451;-62
2022/01/12 04:31:52;;;;;;;13.63;10.00;;;;;;;;;;6098995;23;19994;-63
2022/01/12 04:34:18;;;;;;;30.02;19.83;;;;;;;;;;6073565;23;20371;-63
2022/01/12 04:36:43;;;;;;;64.78;35.35;;;;;;;;;;6073357;23;20002;-63
2022/01/12 04:39:08;;;;;;;20.58;14.05;;;;;;;;;;6099082;23;20006;-63
2022/01/12 04:41:36;;;;;;;21.70;15.45;;;;;;;;;;6049545;23;20049;-62
2022/01/12 04:44:02;;;;;;;17.88;13.48;;;;;;;;;;6073215;23;20101;-62
2022/01/12 04:46:37;;;;;;;15.27;10.80;;;;;;;;;;6073431;23;19998;-62
2022/01/12 04:51:34;;;;;;;17.90;12.15;;;;;;;;;;6073300;23;20011;-68
2022/01/12 04:54:00;;;;;;;16.05;11.15;;;;;;;;;;6093507;23;20026;-68
2022/01/12 04:56:28;;;;;;;16.70;11.43;;;;;;;;;;6102110;23;20026;-68
2022/01/12 04:58:54;;;;;;;15.68;11.48;;;;;;;;;;6101864;23;20008;-69
2022/01/12 05:01:25;;;;;;;15.27;11.05;;;;;;;;;;6127767;23;20009;-69
2022/01/12 05:09:48;;;;;;;17.10;12.80;;;;;;;;;;6126334;23;20037;-68
2022/01/12 05:15:10;;;;;;;16.75;11.88;;;;;;;;;;6102080;23;20006;-69
2022/01/12 05:17:37;;;;;;;18.70;12.80;;;;;;;;;;6101802;23;19998;-69
2022/01/12 05:20:03;;;;;;;20.95;13.95;;;;;;;;;;6125978;23;20045;-69
2022/01/12 05:22:28;;;;;;;19.67;13.15;;;;;;;;;;6127529;23;20005;-69
2022/01/12 05:24:54;;;;;;;17.73;12.93;;;;;;;;;;6101931;23;20422;-69
2022/01/12 05:27:20;;;;;;;17.17;11.60;;;;;;;;;;6127675;23;20093;-69
2022/01/12 05:29:45;;;;;;;17.27;12.80;;;;;;;;;;6127842;23;20422;-69
2022/01/12 05:32:11;;;;;;;21.08;13.60;;;;;;;;;;6125947;23;20431;-70
2022/01/12 05:34:38;;;;;;;42.30;23.73;;;;;;;;;;6101491;23;20008;-69
2022/01/12 05:37:04;;;;;;;23.02;15.93;;;;;;;;;;6101648;23;20025;-69
2022/01/12 05:39:30;;;;;;;24.65;15.90;;;;;;;;;;6101612;23;20010;-69
2022/01/12 05:41:56;;;;;;;31.38;22.45;;;;;;;;;;6101409;23;20021;-69
2022/01/12 05:44:23;;;;;;;20.60;13.32;;;;;;;;;;6100687;23;20060;-69
2022/01/12 05:46:49;;;;;;;35.95;29.20;;;;;;;;;;6101462;23;20303;-70
2022/01/12 05:49:36;;;;;;;23.15;17.02;;;;;;;;;;6101450;23;20437;-69
2022/01/12 05:52:05;;;;;;;20.13;15.25;;;;;;;;;;6101541;23;20006;-69
2022/01/12 05:54:31;;;;;;;22.00;13.52;;;;;;;;;;6101402;23;20018;-69
2022/01/12 05:56:57;;;;;;;21.80;15.90;;;;;;;;;;6101276;23;20068;-69
2022/01/12 05:59:23;;;;;;;22.42;16.48;;;;;;;;;;6100818;23;20081;-69
2022/01/12 06:01:48;;;;;;;31.13;17.02;;;;;;;;;;6101214;23;20018;-70
2022/01/12 06:04:14;;;;;;;26.80;14.77;;;;;;;;;;6127097;23;19998;-70
2022/01/12 06:06:40;;;;;;;25.67;15.68;;;;;;;;;;6101262;23;20009;-70
2022/01/12 06:09:06;;;;;;;141.55;68.22;;;;;;;;;;6101324;23;19998;-70
2022/01/12 06:11:31;;;;;;;77.60;38.88;;;;;;;;;;6101308;23;20350;-70
2022/01/12 06:13:59;;;;;;;225.50;124.20;;;;;;;;;;6101150;23;20026;-70
2022/01/12 06:16:29;;;;;;;31.50;16.77;;;;;;;;;;6101143;23;20014;-69
2022/01/12 06:18:56;;;;;;;93.05;36.10;;;;;;;;;;6100995;23;20009;-69
2022/01/12 06:21:23;;;;;;;135.40;59.38;;;;;;;;;;6100930;23;20061;-69
2022/01/12 06:24:21;;;;;;;83.80;35.90;;;;;;;;;;6110510;23;20353;-70
2022/01/12 06:26:47;;;;;;;86.80;39.25;;;;;;;;;;6127109;23;20005;-67
2022/01/12 06:31:45;;;;;;;44.83;24.60;;;;;;;;;;6127026;23;20010;-69
2022/01/12 06:34:11;;;;;;;28.27;18.70;;;;;;;;;;6127167;23;19994;-69
2022/01/12 06:36:37;;;;;;;32.08;18.75;;;;;;;;;;6101110;23;20006;-69
2022/01/12 06:39:09;;;;;;;27.67;18.38;;;;;;;;;;6100899;23;20081;-71
2022/01/12 06:41:36;;;;;;;28.10;18.25;;;;;;;;;;6100965;23;20010;-69
2022/01/12 06:44:01;;;;;;;26.40;16.05;;;;;;;;;;6126753;23;20002;-69
2022/01/12 06:46:29;;;;;;;50.55;34.80;;;;;;;;;;6126778;23;20006;-69
2022/01/12 06:48:55;;;;;;;32.47;20.00;;;;;;;;;;6100784;23;20032;-69
2022/01/12 06:51:20;;;;;;;54.80;28.67;;;;;;;;;;6126836;23;20331;-70
2022/01/12 06:53:46;;;;;;;37.80;23.50;;;;;;;;;;6099896;23;20073;-69
2022/01/12 06:56:15;;;;;;;42.00;26.33;;;;;;;;;;6100569;23;20017;-69
2022/01/12 06:58:44;;;;;;;27.30;16.58;;;;;;;;;;6100698;23;20005;-69
2022/01/12 07:01:09;;;;;;;55.90;27.95;;;;;;;;;;6100753;23;20017;-68
2022/01/12 07:03:39;;;;;;;89.33;43.80;;;;;;;;;;6100667;23;20032;-68
2022/01/12 07:06:05;;;;;;;44.53;26.13;;;;;;;;;;6125061;23;20423;-68
2022/01/12 07:08:34;;;;;;;46.00;27.77;;;;;;;;;;6100685;23;19998;-68
2022/01/12 07:11:01;;;;;;;28.35;17.95;;;;;;;;;;6100720;23;20060;-68
2022/01/12 07:13:26;;;;;;;29.27;16.23;;;;;;;;;;6100716;23;20072;-68
2022/01/12 07:15:52;;;;;;;20.08;12.43;;;;;;;;;;6100446;23;20315;-69
2022/01/12 07:18:21;;;;;;;33.65;17.70;;;;;;;;;;6100645;23;20012;-69
2022/01/12 07:20:48;;;;;;;28.45;16.13;;;;;;;;;;6100504;23;20092;-68
2022/01/12 07:23:13;;;;;;;34.92;20.75;;;;;;;;;;6126061;23;20457;-69
2022/01/12 07:25:39;;;;;;;30.38;18.75;;;;;;;;;;6126392;23;20080;-65
2022/01/12 07:28:04;;;;;;;33.55;22.30;;;;;;;;;;6126363;23;20001;-70
2022/01/12 07:30:29;;;;;;;38.40;25.98;;;;;;;;;;6126512;23;20017;-69
2022/01/12 07:32:55;;;;;;;25.25;17.60;;;;;;;;;;6126064;23;20300;-69
2022/01/12 07:35:21;;;;;;;40.90;28.38;;;;;;;;;;6100602;23;20061;-69
2022/01/12 07:37:46;;;;;;;22.95;15.55;;;;;;;;;;6126529;23;20049;-69
2022/01/12 07:40:12;;;;;;;37.83;20.98;;;;;;;;;;6124930;23;20061;-69
2022/01/12 07:42:37;;;;;;;51.15;33.92;;;;;;;;;;6126363;23;20008;-69
2022/01/12 07:45:11;;;;;;;82.32;48.58;;;;;;;;;;6100559;23;20041;-69
2022/01/12 07:47:37;;;;;;;33.70;17.67;;;;;;;;;;6126136;23;20006;-69
2022/01/12 07:50:04;;;;;;;31.50;18.05;;;;;;;;;;6100659;23;20338;-69
2022/01/12 07:52:30;;;;;;;56.75;25.73;;;;;;;;;;6126042;23;20100;-69
2022/01/12 07:54:56;;;;;;;55.60;25.23;;;;;;;;;;6126529;23;20002;-69
2022/01/12 07:57:21;;;;;;;43.50;22.63;;;;;;;;;;6126363;23;20011;-69
2022/01/12 07:59:47;;;;;;;56.60;27.60;;;;;;;;;;6126360;23;20009;-69
2022/01/12 08:02:12;;;;;;;30.10;16.65;;;;;;;;;;6126269;23;20026;-69
2022/01/12 08:04:38;;;;;;;117.15;68.40;;;;;;;;;;6126068;23;20010;-69
2022/01/12 08:07:06;;;;;;;91.82;53.15;;;;;;;;;;6100257;23;19998;-69
2022/01/12 08:09:32;;;;;;;71.18;40.50;;;;;;;;;;6100460;23;20092;-69
2022/01/12 08:11:58;;;;;;;41.78;26.02;;;;;;;;;;6126472;23;20068;-69
2022/01/12 08:14:27;;;;;;;38.75;27.90;;;;;;;;;;6126309;23;20434;-69
2022/01/12 08:16:53;;;;;;;93.35;62.95;;;;;;;;;;6125960;23;20005;-69
2022/01/12 08:19:21;;;;;;;67.65;48.22;;;;;;;;;;6125524;23;20005;-69
2022/01/12 08:21:47;;;;;;;58.38;41.20;;;;;;;;;;6125789;23;20005;-69
2022/01/12 08:24:13;;;;;;;33.38;24.25;;;;;;;;;;6125706;23;20041;-69
2022/01/12 08:26:39;;;;;;;233.85;113.07;;;;;;;;;;6125928;23;20002;-69
2022/01/12 08:29:05;;;;;;;195.38;100.43;;;;;;;;;;6125831;23;20002;-69
2022/01/12 08:31:30;;;;;;;130.82;75.95;;;;;;;;;;6125972;23;20330;-69
2022/01/12 08:33:56;;;;;;;487.55;276.60;;;;;;;;;;6125968;23;20362;-69
2022/01/12 08:36:21;;;;;;;240.00;126.70;;;;;;;;;;6126249;23;20002;-69
2022/01/12 08:38:47;;;;;;;352.70;193.70;;;;;;;;;;6126079;23;20010;-69
2022/01/12 08:41:12;;;;;;;26.98;18.83;;;;;;;;;;6126170;23;20450;-69
2022/01/12 08:43:38;;;;;;;24.23;17.25;;;;;;;;;;6126009;23;20021;-69
2022/01/12 08:46:03;;;;;;;39.80;20.42;;;;;;;;;;6127433;23;20005;-69
2022/01/12 08:48:29;;;;;;;961.05;446.58;;;;;;;;;;6127912;23;20419;-69
2022/01/12 08:50:54;;;;;;;654.38;304.48;;;;;;;;;;6127778;23;20002;-69
2022/01/12 08:53:20;;;;;;;1879.47;628.92;;;;;;;;;;6127347;23;20096;-69
2022/01/12 08:55:46;;;;;;;951.38;399.52;;;;;;;;;;6127814;23;20088;-69
2022/01/12 08:58:11;;;;;;;28.58;17.00;;;;;;;;;;6127685;23;20329;-69
2022/01/12 09:00:37;;;;;;;19.13;12.55;;;;;;;;;;6127759;23;19998;-69
2022/01/12 09:03:03;;;;;;;24.88;15.07;;;;;;;;;;6101796;23;20060;-69
2022/01/12 09:05:29;;;;;;;1828.43;741.28;;;;;;;;;;6127787;23;20088;-69
2022/01/12 09:07:55;;;;;;;552.25;213.48;;;;;;;;;;6127816;23;20084;-69
2022/01/12 09:10:21;;;;;;;1347.93;577.03;;;;;;;;;;6127604;23;20048;-69
2022/01/12 09:12:46;;;;;;;912.65;394.85;;;;;;;;;;6127652;23;20012;-69
2022/01/12 09:15:13;;;;;;;276.25;116.22;;;;;;;;;;6127809;23;20029;-69
2022/01/12 09:17:39;;;;;;;745.78;310.55;;;;;;;;;;6127794;23;20020;-69
2022/01/12 09:20:05;;;;;;;604.22;256.45;;;;;;;;;;6127608;23;20081;-69
2022/01/12 09:22:32;;;;;;;654.92;309.98;;;;;;;;;;6127505;23;20005;-69
2022/01/12 09:24:57;;;;;;;1098.90;620.92;;;;;;;;;;6101594;23;20008;-69
2022/01/12 09:27:23;;;;;;;540.25;292.15;;;;;;;;;;6101724;23;20438;-69
2022/01/12 09:29:48;;;;;;;81.18;44.65;;;;;;;;;;6101444;23;20021;-69
2022/01/12 09:32:13;;;;;;;164.95;90.43;;;;;;;;;;6127512;23;20085;-69
2022/01/12 09:34:39;;;;;;;90.15;54.22;;;;;;;;;;6127602;23;20002;-69
2022/01/12 09:37:04;;;;;;;149.30;88.22;;;;;;;;;;6101620;23;20006;-69
2022/01/12 09:39:30;;;;;;;170.65;113.72;;;;;;;;;;6127185;23;20008;-69
2022/01/12 09:41:56;;;;;;;62.95;39.05;;;;;;;;;;6127499;23;20014;-69
2022/01/12 09:44:27;;;;;;;45.55;30.52;;;;;;;;;;6127216;23;20008;-69
2022/01/12 09:46:53;;;;;;;198.82;123.75;;;;;;;;;;6127621;23;20006;-69
2022/01/12 09:49:18;;;;;;;179.73;118.10;;;;;;;;;;6127199;23;20034;-69
2022/01/12 09:51:44;;;;;;;63.88;40.85;;;;;;;;;;6127393;23;20009;-69
2022/01/12 09:54:11;;;;;;;30.52;20.20;;;;;;;;;;6125888;23;20486;-69
2022/01/12 09:56:37;;;;;;;21.67;15.32;;;;;;;;;;6126093;23;20419;-69
2022/01/12 09:59:07;;;;;;;71.40;45.63;;;;;;;;;;6101267;23;20017;-70
2022/01/12 10:01:36;;;;;;;122.97;79.00;;;;;;;;;;6127135;23;20013;-69
2022/01/12 10:04:09;;;;;;;114.32;79.07;;;;;;;;;;6127203;23;20089;-69
2022/01/12 10:06:39;;;;;;;70.28;46.83;;;;;;;;;;6127445;23;20006;-69
2022/01/12 10:09:04;;;;;;;44.13;29.65;;;;;;;;;;6127326;23;20427;-69
2022/01/12 10:11:30;;;;;;;117.85;73.25;;;;;;;;;;6127005;23;20014;-69
2022/01/12 10:13:56;;;;;;;33.63;21.77;;;;;;;;;;6100997;23;20020;-69
2022/01/12 10:16:26;;;;;;;26.35;17.58;;;;;;;;;;6127186;23;19997;-69
2022/01/12 10:18:53;;;;;;;31.98;22.45;;;;;;;;;;6127139;23;20010;-69
2022/01/12 10:21:44;;;;;;;47.80;36.33;;;;;;;;;;6127042;23;20457;-69
2022/01/12 10:24:12;;;;;;;60.78;39.85;;;;;;;;;;6096844;23;20362;-69
2022/01/12 10:26:39;;;;;;;48.10;40.60;;;;;;;;;;6126949;23;19994;-69
2022/01/12 10:29:07;;;;;;;141.40;93.57;;;;;;;;;;6100973;23;20010;-69
2022/01/12 10:31:53;;;;;;;30.15;19.52;;;;;;;;;;6127002;23;20130;-69
2022/01/12 10:34:22;;;;;;;21.98;17.42;;;;;;;;;;6100710;23;20017;-69
2022/01/12 10:36:48;;;;;;;31.98;21.45;;;;;;;;;;6126956;23;20006;-69
2022/01/12 10:39:15;;;;;;;20.98;14.48;;;;;;;;;;6126766;23;20006;-69
2022/01/12 10:41:52;;;;;;;23.48;18.45;;;;;;;;;;6101118;23;20033;-69
2022/01/12 10:44:19;;;;;;;43.42;37.30;;;;;;;;;;6100853;23;20427;-69
2022/01/12 10:46:44;;;;;;;16.80;11.90;;;;;;;;;;6126854;23;20448;-69
2022/01/12 10:49:16;;;;;;;17.15;12.48;;;;;;;;;;6100725;23;20046;-69
2022/01/12 10:51:42;;;;;;;16.70;11.77;;;;;;;;;;6127184;23;20005;-69
2022/01/12 10:54:08;;;;;;;75.72;60.67;;;;;;;;;;6126494;23;20053;-69
2022/01/12 10:56:34;;;;;;;13.75;10.43;;;;;;;;;;6126611;23;20018;-69
2022/01/12 10:59:00;;;;;;;21.92;15.50;;;;;;;;;;6126593;23;20024;-69
2022/01/12 11:01:26;;;;;;;22.38;16.23;;;;;;;;;;6126656;23;20008;-69
2022/01/12 11:03:52;;;;;;;21.63;12.52;;;;;;;;;;6126406;23;20489;-69
2022/01/12 11:06:17;;;;;;;12.65;9.73;;;;;;;;;;6126678;23;19998;-69
2022/01/12 11:08:45;;;;;;;14.02;10.07;;;;;;;;;;6126377;23;20056;-69
2022/01/12 11:11:11;;;;;;;12.88;9.82;;;;;;;;;;6126582;23;20005;-69
2022/01/12 11:13:37;;;;;;;15.55;10.60;;;;;;;;;;6126455;23;20010;-69
2022/01/12 11:16:04;;;;;;;17.35;11.90;;;;;;;;;;6126619;23;20045;-69
2022/01/12 11:18:32;;;;;;;16.17;11.77;;;;;;;;;;6126604;23;20435;-69
2022/01/12 11:21:05;;;;;;;15.32;10.05;;;;;;;;;;6126556;23;20079;-69
2022/01/12 11:23:38;;;;;;;18.30;11.38;;;;;;;;;;6126357;23;20068;-69
2022/01/12 11:26:17;;;;;;;13.07;9.38;;;;;;;;;;6126550;23;20477;-69
2022/01/12 11:28:43;;;;;;;18.88;11.43;;;;;;;;;;6126700;23;20006;-69
2022/01/12 11:31:09;;;;;;;29.85;15.02;;;;;;;;;;6100326;23;20355;-69
2022/01/12 11:33:34;;;;;;;29.58;13.80;;;;;;;;;;6126595;23;20014;-69
2022/01/12 11:36:02;;;;;;;16.33;10.35;;;;;;;;;;6100789;23;20002;-69
2022/01/12 11:38:30;;;;;;;15.95;9.63;;;;;;;;;;6126346;23;20010;-69
2022/01/12 11:40:56;;;;;;;17.52;10.75;;;;;;;;;;6100362;23;20032;-69
2022/01/12 11:43:25;;;;;;;14.65;9.85;;;;;;;;;;6126200;23;20006;-69
2022/01/12 11:46:20;;;;;;;16.17;10.82;;;;;;;;;;6126330;23;20002;-69
2022/01/12 11:48:52;;;;;;;13.75;9.45;;;;;;;;;;6106962;23;20010;-69
2022/01/12 11:51:18;;;;;;;16.73;9.95;;;;;;;;;;6100817;23;20092;-69
2022/01/12 11:53:48;;;;;;;60.88;38.25;;;;;;;;;;6126372;23;19998;-69
2022/01/12 11:56:15;;;;;;;255.95;137.65;;;;;;;;;;6125723;23;20065;-69
2022/01/12 11:58:50;;;;;;;27.27;17.00;;;;;;;;;;6126263;23;20006;-69
2022/01/12 12:01:17;;;;;;;15.60;10.10;;;;;;;;;;6126203;23;20430;-69
2022/01/12 12:03:42;;;;;;;17.65;11.10;;;;;;;;;;6126212;23;20072;-69
2022/01/12 12:06:19;;;;;;;25.58;14.43;;;;;;;;;;6126262;23;20427;-69
2022/01/12 12:09:02;;;;;;;17.15;11.43;;;;;;;;;;6126456;23;20001;-69
2022/01/12 12:11:29;;;;;;;18.05;11.15;;;;;;;;;;6126250;23;20002;-69
2022/01/12 12:14:04;;;;;;;18.55;12.18;;;;;;;;;;6126187;23;20076;-69
2022/01/12 12:16:30;;;;;;;16.00;10.25;;;;;;;;;;6124846;23;20010;-69
2022/01/12 12:18:56;;;;;;;16.25;10.38;;;;;;;;;;6126241;23;20013;-69
2022/01/12 12:21:22;;;;;;;15.88;10.27;;;;;;;;;;6127897;23;20089;-69
2022/01/12 12:23:48;;;;;;;13.60;9.45;;;;;;;;;;6127475;23;20033;-69
2022/01/12 12:26:15;;;;;;;14.02;10.13;;;;;;;;;;6127849;23;20092;-69
2022/01/12 12:28:44;;;;;;;16.90;9.75;;;;;;;;;;6127980;23;19998;-69
2022/01/12 12:31:09;;;;;;;236.27;61.58;;;;;;;;;;6128088;23;20010;-69
2022/01/12 12:33:35;;;;;;;56.65;33.30;;;;;;;;;;6128190;23;20367;-69
2022/01/12 12:36:03;;;;;;;33.55;22.23;;;;;;;;;;6127881;23;20339;-69
2022/01/12 12:38:29;;;;;;;21.40;13.10;;;;;;;;;;6128017;23;20367;-69
2022/01/12 12:40:55;;;;;;;17.10;12.18;;;;;;;;;;6128130;23;20065;-68
2022/01/12 12:43:23;;;;;;;20.95;11.90;;;;;;;;;;6128111;23;20009;-69
2022/01/12 12:45:50;;;;;;;34.25;17.80;;;;;;;;;;6127901;23;20430;-69
2022/01/12 12:48:17;;;;;;;153.07;62.50;;;;;;;;;;6127887;23;19998;-69
2022/01/12 12:50:43;;;;;;;287.98;123.72;;;;;;;;;;6127849;23;20010;-69
2022/01/12 12:53:08;;;;;;;89.85;42.60;;;;;;;;;;6128019;23;20034;-69
2022/01/12 12:55:35;;;;;;;45.22;23.02;;;;;;;;;;6127816;23;20326;-69
2022/01/12 12:58:01;;;;;;;164.25;75.43;;;;;;;;;;6128055;23;20009;-69
2022/01/12 13:00:27;;;;;;;78.20;39.03;;;;;;;;;;6127979;23;20006;-69
2022/01/12 13:02:54;;;;;;;29.23;17.52;;;;;;;;;;6127863;23;20005;-69
2022/01/12 13:05:22;;;;;;;70.15;37.03;;;;;;;;;;6127820;23;20119;-69
2022/01/12 13:07:48;;;;;;;168.15;83.60;;;;;;;;;;6127851;23;20454;-69
2022/01/12 13:10:15;;;;;;;159.07;84.43;;;;;;;;;;6127732;23;20084;-69
2022/01/12 13:12:42;;;;;;;33.95;18.70;;;;;;;;;;6127802;23;20002;-69
2022/01/12 13:15:10;;;;;;;30.45;16.70;;;;;;;;;;6127747;23;20053;-69
2022/01/12 13:17:39;;;;;;;38.08;19.35;;;;;;;;;;6127104;23;20372;-69
2022/01/12 13:22:39;;;;;;;21.20;12.90;;;;;;;;;;6127752;23;20006;-69
2022/01/12 13:25:07;;;;;;;29.48;17.23;;;;;;;;;;6128054;23;20030;-69
2022/01/12 13:27:33;;;;;;;33.10;18.15;;;;;;;;;;6127740;23;20002;-69
2022/01/12 13:30:00;;;;;;;25.10;15.07;;;;;;;;;;6127568;23;20335;-69
2022/01/12 13:32:26;;;;;;;19.83;12.27;;;;;;;;;;6127544;23;20002;-69
2022/01/12 13:34:56;;;;;;;16.85;11.13;;;;;;;;;;6127526;23;20396;-69
2022/01/12 13:37:22;;;;;;;;;;;;;;;;;;6128038;23;20010;-69
2022/01/12 13:39:48;;;;;;;16.02;10.52;;;;;;;;;;6127650;23;19908;-69
2022/01/12 13:42:13;;;;;;;15.90;10.35;;;;;;;;;;6127550;23;20010;-69
2022/01/12 13:44:39;;;;;;;15.55;10.77;;;;;;;;;;6127468;23;20008;-69
2022/01/12 13:47:38;;;;;;;15.85;10.57;;;;;;;;;;6127385;23;20006;-69
2022/01/12 13:50:04;;;;;;;16.90;11.77;;;;;;;;;;6120732;23;20006;-69
2022/01/12 13:52:29;;;;;;;20.48;12.82;;;;;;;;;;6127483;23;20088;-69
2022/01/12 13:54:54;;;;;;;20.38;13.45;;;;;;;;;;6127197;23;20029;-68
2022/01/12 13:57:21;;;;;;;19.35;12.40;;;;;;;;;;6127229;23;20025;-69
2022/01/12 13:59:47;;;;;;;19.67;11.45;;;;;;;;;;6127301;23;20001;-69
2022/01/12 14:02:14;;;;;;;17.30;10.73;;;;;;;;;;6127177;23;20010;-69
2022/01/12 14:04:41;;;;;;;16.42;11.18;;;;;;;;;;6126997;23;20013;-69
2022/01/12 14:07:10;;;;;;;20.55;11.48;;;;;;;;;;6127196;23;20093;-69
2022/01/12 14:09:39;;;;;;;18.48;11.93;;;;;;;;;;6127094;23;20021;-69
2022/01/12 14:12:11;;;;;;;21.02;13.32;;;;;;;;;;6101683;23;20347;-69
2022/01/12 14:14:50;;;;;;;35.05;19.52;;;;;;;;;;6127098;23;20064;-69
2022/01/12 14:17:28;;;;;;;28.67;16.58;;;;;;;;;;6127061;23;20006;-69
2022/01/12 14:19:57;;;;;;;28.40;16.77;;;;;;;;;;6127036;23;20343;-69
2022/01/12 14:22:24;;;;;;;29.92;16.33;;;;;;;;;;6127295;23;20002;-69
2022/01/12 14:25:00;;;;;;;26.33;15.40;;;;;;;;;;6101243;23;20334;-69
2022/01/12 14:27:37;;;;;;;25.70;15.38;;;;;;;;;;6127032;23;20005;-69
2022/01/12 14:30:04;;;;;;;24.40;13.48;;;;;;;;;;6126541;23;20002;-69
2022/01/12 14:32:35;;;;;;;30.77;14.95;;;;;;;;;;6126694;23;19994;-70
2022/01/12 14:35:00;;;;;;;24.50;13.23;;;;;;;;;;6127282;23;20006;-69
2022/01/12 14:37:26;;;;;;;24.63;14.77;;;;;;;;;;6127180;23;20001;-70
2022/01/12 14:39:51;;;;;;;20.90;12.60;;;;;;;;;;6101385;23;20013;-69
2022/01/12 14:42:17;;;;;;;21.95;13.43;;;;;;;;;;6127049;23;19998;-69
2022/01/12 14:44:42;;;;;;;24.48;15.00;;;;;;;;;;6127105;23;20033;-69
2022/01/12 14:47:07;;;;;;;26.90;15.93;;;;;;;;;;6127095;23;20021;-69
2022/01/12 14:49:33;;;;;;;29.92;17.02;;;;;;;;;;6127076;23;20002;-69
2022/01/12 14:51:58;;;;;;;30.35;16.00;;;;;;;;;;6127021;23;19998;-69
2022/01/12 14:54:24;;;;;;;25.23;15.05;;;;;;;;;;6126679;23;20093;-69
2022/01/12 14:56:50;;;;;;;36.45;20.50;;;;;;;;;;6100637;23;20026;-69
2022/01/12 14:59:15;;;;;;;36.58;20.30;;;;;;;;;;6126944;23;20035;-69
2022/01/12 15:01:41;;;;;;;33.30;18.20;;;;;;;;;;6126783;23;20025;-69
2022/01/12 15:04:07;;;;;;;38.10;20.02;;;;;;;;;;6126080;23;20016;-69
2022/01/12 15:06:32;;;;;;;39.20;19.63;;;;;;;;;;6127057;23;20026;-69
2022/01/12 15:08:58;;;;;;;46.78;23.10;;;;;;;;;;6126439;23;20057;-69
2022/01/12 15:11:23;;;;;;;50.67;23.88;;;;;;;;;;6126704;23;20008;-69
2022/01/12 15:13:58;;;;;;;52.80;25.15;;;;;;;;;;6126549;23;20006;-69
2022/01/12 15:16:24;;;;;;;50.45;24.27;;;;;;;;;;6126707;23;20006;-69
2022/01/12 15:18:49;;;;;;;42.25;22.02;;;;;;;;;;6126712;23;20009;-69
2022/01/12 15:21:16;;;;;;;43.65;22.45;;;;;;;;;;6126758;23;20407;-70
2022/01/12 15:23:42;;;;;;;40.63;21.27;;;;;;;;;;6126486;23;19998;-70
2022/01/12 15:26:07;;;;;;;38.22;21.08;;;;;;;;;;6126743;23;20474;-69
2022/01/12 15:28:32;;;;;;;48.40;23.02;;;;;;;;;;6126629;23;20127;-69
2022/01/12 15:30:58;;;;;;;56.92;28.88;;;;;;;;;;6126095;23;20064;-70
2022/01/12 15:33:23;;;;;;;152.15;71.70;;;;;;;;;;6126366;23;20406;-70
2022/01/12 15:35:49;;;;;;;273.00;121.75;;;;;;;;;;6126883;23;20006;-70
2022/01/12 15:38:14;;;;;;;87.93;44.17;;;;;;;;;;6116037;23;20057;-69
2022/01/12 15:40:41;;;;;;;61.72;30.63;;;;;;;;;;6122188;23;20017;-70
2022/01/12 15:43:06;;;;;;;45.30;25.98;;;;;;;;;;6121898;23;20010;-70
2022/01/12 15:45:32;;;;;;;36.95;21.40;;;;;;;;;;6122004;23;20016;-70
2022/01/12 15:47:58;;;;;;;37.92;21.65;;;;;;;;;;6121827;23;19998;-69
2022/01/12 15:50:23;;;;;;;39.88;23.65;;;;;;;;;;6121893;23;20006;-70
2022/01/12 15:52:49;;;;;;;52.42;27.33;;;;;;;;;;6122205;23;19998;-70
2022/01/12 15:55:15;;;;;;;53.47;30.52;;;;;;;;;;6122384;23;20033;-69
2022/01/12 15:57:41;;;;;;;56.70;32.42;;;;;;;;;;6123355;23;20010;-70
2022/01/12 16:00:08;;;;;;;56.63;33.17;;;;;;;;;;6098116;23;20073;-70
2022/01/12 16:02:34;;;;;;;50.75;29.95;;;;;;;;;;6123649;23;20010;-69